sensor_id;sensor_type;location;lat;lon;timestamp;pressure;altitude;pressure_sealevel;temperature;humidity
48204;BME280;33994;50.998;5.864;2022-10-16T00:01:05;100624.47;;;13.19;100.00
48204;BME280;33994;50.998;5.864;2022-10-16T00:03:51;100607.00;;;13.18;100.00
48204;BME280;33994;50.998;5.864;2022-10-16T00:06:36;100599.13;;;13.18;100.00
48204;BME280;33994;50.998;5.864;2022-10-16T00:09:22;100594.72;;;13.20;100.00
48204;BME280;33994;50.998;5.864;2022-10-16T00:12:07;100593.78;;;13.21;100.00
48204;BME280;33994;50.998;5.864;2022-10-16T00:14:52;100592.09;;;13.20;100.00
48204;BME280;33994;50.998;5.864;2022-10-16T00:17:38;100591.19;;;13.19;100.00
48204;BME280;33994;50.998;5.864;2022-10-16T00:20:24;100597.34;;;13.20;100.00
48204;BME280;33994;50.998;5.864;2022-10-16T00:23:28;100587.78;;;13.17;100.00
48204;BME280;33994;50.998;5.864;2022-10-16T00:26:16;100588.63;;;13.18;100.00
48204;BME280;33994;50.998;5.864;2022-10-16T00:29:02;100592.16;;;13.17;100.00
48204;BME280;33994;50.998;5.864;2022-10-16T00:31:48;100586.00;;;13.18;100.00
48204;BME280;33994;50.998;5.864;2022-10-16T00:34:34;100577.28;;;13.17;99.99
48204;BME280;33994;50.998;5.864;2022-10-16T00:37:19;100574.66;;;13.17;99.97
48204;BME280;33994;50.998;5.864;2022-10-16T00:40:05;100572.09;;;13.14;99.83
48204;BME280;33994;50.998;5.864;2022-10-16T00:42:50;100580.06;;;13.11;99.82
48204;BME280;33994;50.998;5.864;2022-10-16T00:45:36;100594.16;;;13.08;99.92
48204;BME280;33994;50.998;5.864;2022-10-16T00:48:21;100594.31;;;13.02;100.00
48204;BME280;33994;50.998;5.864;2022-10-16T00:51:07;100605.81;;;12.98;100.00
48204;BME280;33994;50.998;5.864;2022-10-16T00:53:54;100605.97;;;12.94;100.00
48204;BME280;33994;50.998;5.864;2022-10-16T00:56:41;100606.84;;;12.93;100.00
48204;BME280;33994;50.998;5.864;2022-10-16T00:59:30;100605.19;;;12.88;100.00
48204;BME280;33994;50.998;5.864;2022-10-16T01:02:16;100603.53;;;12.86;100.00
48204;BME280;33994;50.998;5.864;2022-10-16T01:05:02;100617.59;;;12.83;100.00
48204;BME280;33994;50.998;5.864;2022-10-16T01:07:59;100609.81;;;12.80;100.00
48204;BME280;33994;50.998;5.864;2022-10-16T01:10:50;100614.34;;;12.75;100.00
48204;BME280;33994;50.998;5.864;2022-10-16T01:13:42;100620.38;;;12.77;100.00
48204;BME280;33994;50.998;5.864;2022-10-16T01:16:40;100608.19;;;12.76;100.00
48204;BME280;33994;50.998;5.864;2022-10-16T01:22:20;100609.88;;;12.77;100.00
48204;BME280;33994;50.998;5.864;2022-10-16T01:25:15;100620.50;;;12.74;100.00
48204;BME280;33994;50.998;5.864;2022-10-16T01:28:04;100641.50;;;12.74;100.00
48204;BME280;33994;50.998;5.864;2022-10-16T01:30:53;100631.88;;;12.73;100.00
48204;BME280;33994;50.998;5.864;2022-10-16T01:33:46;100627.50;;;12.74;100.00
48204;BME280;33994;50.998;5.864;2022-10-16T01:36:43;100624.00;;;12.73;100.00
48204;BME280;33994;50.998;5.864;2022-10-16T01:39:32;100631.84;;;12.75;100.00
48204;BME280;33994;50.998;5.864;2022-10-16T01:42:24;100630.88;;;12.77;100.00
48204;BME280;33994;50.998;5.864;2022-10-16T01:45:15;100629.16;;;12.78;100.00
48204;BME280;33994;50.998;5.864;2022-10-16T01:48:04;100627.44;;;12.75;99.93
48204;BME280;33994;50.998;5.864;2022-10-16T01:51:05;100636.31;;;12.71;99.93
48204;BME280;33994;50.998;5.864;2022-10-16T01:53:54;100640.78;;;12.68;100.00
48204;BME280;33994;50.998;5.864;2022-10-16T01:56:41;100638.09;;;12.69;100.00
48204;BME280;33994;50.998;5.864;2022-10-16T01:59:30;100638.06;;;12.71;100.00
48204;BME280;33994;50.998;5.864;2022-10-16T02:02:18;100626.69;;;12.72;100.00
48204;BME280;33994;50.998;5.864;2022-10-16T02:05:12;100630.16;;;12.72;100.00
48204;BME280;33994;50.998;5.864;2022-10-16T02:08:00;100634.50;;;12.73;100.00
48204;BME280;33994;50.998;5.864;2022-10-16T02:10:46;100637.13;;;12.73;99.98
48204;BME280;33994;50.998;5.864;2022-10-16T02:13:45;100630.16;;;12.72;99.91
48204;BME280;33994;50.998;5.864;2022-10-16T02:16:40;100629.28;;;12.72;100.00
48204;BME280;33994;50.998;5.864;2022-10-16T02:19:29;100630.16;;;12.72;99.87
48204;BME280;33994;50.998;5.864;2022-10-16T02:22:28;100624.00;;;12.73;99.69
48204;BME280;33994;50.998;5.864;2022-10-16T02:25:19;100629.25;;;12.73;99.55
48204;BME280;33994;50.998;5.864;2022-10-16T02:28:12;100622.28;;;12.72;99.61
48204;BME280;33994;50.998;5.864;2022-10-16T02:31:03;100630.22;;;12.69;99.51
48204;BME280;33994;50.998;5.864;2022-10-16T02:33:50;100631.13;;;12.68;99.47
48204;BME280;33994;50.998;5.864;2022-10-16T02:36:39;100642.50;;;12.69;99.50
48204;BME280;33994;50.998;5.864;2022-10-16T02:39:27;100630.22;;;12.69;99.46
48204;BME280;33994;50.998;5.864;2022-10-16T02:42:14;100639.00;;;12.68;99.62
48204;BME280;33994;50.998;5.864;2022-10-16T02:45:00;100643.41;;;12.68;99.48
48204;BME280;33994;50.998;5.864;2022-10-16T02:47:45;100637.28;;;12.67;99.67
48204;BME280;33994;50.998;5.864;2022-10-16T02:50:31;100646.97;;;12.65;99.57
48204;BME280;33994;50.998;5.864;2022-10-16T02:53:16;100628.59;;;12.65;99.64
48204;BME280;33994;50.998;5.864;2022-10-16T02:56:02;100636.47;;;12.65;99.67
48204;BME280;33994;50.998;5.864;2022-10-16T02:58:47;100634.75;;;12.64;99.80
48204;BME280;33994;50.998;5.864;2022-10-16T03:01:32;100633.03;;;12.63;99.69
48204;BME280;33994;50.998;5.864;2022-10-16T03:04:18;100633.03;;;12.63;99.93
48204;BME280;33994;50.998;5.864;2022-10-16T03:07:03;100626.16;;;12.59;99.91
48204;BME280;33994;50.998;5.864;2022-10-16T03:09:49;100633.97;;;12.60;99.83
48204;BME280;33994;50.998;5.864;2022-10-16T03:12:34;100628.72;;;12.60;99.90
48204;BME280;33994;50.998;5.864;2022-10-16T03:15:20;100640.97;;;12.60;99.98
48204;BME280;33994;50.998;5.864;2022-10-16T03:18:05;100651.56;;;12.57;99.99
48204;BME280;33994;50.998;5.864;2022-10-16T03:20:51;100638.44;;;12.57;100.00
48204;BME280;33994;50.998;5.864;2022-10-16T03:23:36;100635.81;;;12.57;100.00
48204;BME280;33994;50.998;5.864;2022-10-16T03:26:22;100647.22;;;12.56;100.00
48204;BME280;33994;50.998;5.864;2022-10-16T03:29:07;100648.13;;;12.53;100.00
48204;BME280;33994;50.998;5.864;2022-10-16T03:31:53;100648.06;;;12.56;100.00
48204;BME280;33994;50.998;5.864;2022-10-16T03:34:38;100645.53;;;12.53;99.95
48204;BME280;33994;50.998;5.864;2022-10-16T03:37:24;100650.88;;;12.49;100.00
48204;BME280;33994;50.998;5.864;2022-10-16T03:40:09;100656.13;;;12.49;100.00
48204;BME280;33994;50.998;5.864;2022-10-16T03:42:55;100664.00;;;12.49;100.00
48204;BME280;33994;50.998;5.864;2022-10-16T03:45:41;100664.06;;;12.46;100.00
48204;BME280;33994;50.998;5.864;2022-10-16T03:48:27;100670.31;;;12.41;100.00
48204;BME280;33994;50.998;5.864;2022-10-16T03:51:12;100664.25;;;12.38;100.00
48204;BME280;33994;50.998;5.864;2022-10-16T03:53:58;100659.94;;;12.37;100.00
48204;BME280;33994;50.998;5.864;2022-10-16T03:56:43;100661.75;;;12.33;100.00
48204;BME280;33994;50.998;5.864;2022-10-16T03:59:29;100659.16;;;12.33;100.00
48204;BME280;33994;50.998;5.864;2022-10-16T04:02:14;100664.44;;;12.32;100.00
48204;BME280;33994;50.998;5.864;2022-10-16T04:05:00;100675.78;;;12.32;100.00
48204;BME280;33994;50.998;5.864;2022-10-16T04:07:45;100676.66;;;12.31;100.00
48204;BME280;33994;50.998;5.864;2022-10-16T04:10:31;100673.25;;;12.28;100.00
48204;BME280;33994;50.998;5.864;2022-10-16T04:13:17;100677.63;;;12.27;100.00
48204;BME280;33994;50.998;5.864;2022-10-16T04:16:02;100678.59;;;12.25;100.00
48204;BME280;33994;50.998;5.864;2022-10-16T04:18:47;100685.50;;;12.27;100.00
48204;BME280;33994;50.998;5.864;2022-10-16T04:21:33;100694.22;;;12.28;100.00
48204;BME280;33994;50.998;5.864;2022-10-16T04:24:18;100696.84;;;12.28;100.00
48204;BME280;33994;50.998;5.864;2022-10-16T04:27:04;100704.75;;;12.26;100.00
48204;BME280;33994;50.998;5.864;2022-10-16T04:29:49;100698.63;;;12.27;100.00
48204;BME280;33994;50.998;5.864;2022-10-16T04:32:35;100724.84;;;12.27;100.00
48204;BME280;33994;50.998;5.864;2022-10-16T04:35:21;100717.88;;;12.26;100.00
48204;BME280;33994;50.998;5.864;2022-10-16T04:38:07;100715.25;;;12.26;100.00
48204;BME280;33994;50.998;5.864;2022-10-16T04:40:53;100712.63;;;12.26;100.00
48204;BME280;33994;50.998;5.864;2022-10-16T04:43:38;100716.16;;;12.25;100.00
48204;BME280;33994;50.998;5.864;2022-10-16T04:46:23;100704.75;;;12.26;100.00
48204;BME280;33994;50.998;5.864;2022-10-16T04:49:09;100716.16;;;12.25;100.00
48204;BME280;33994;50.998;5.864;2022-10-16T04:51:54;100734.47;;;12.27;100.00
48204;BME280;33994;50.998;5.864;2022-10-16T04:54:40;100731.91;;;12.25;100.00
48204;BME280;33994;50.998;5.864;2022-10-16T04:57:25;100723.13;;;12.26;100.00
48204;BME280;33994;50.998;5.864;2022-10-16T05:00:11;100724.84;;;12.27;100.00
48204;BME280;33994;50.998;5.864;2022-10-16T05:02:56;100722.31;;;12.24;100.00
48204;BME280;33994;50.998;5.864;2022-10-16T05:05:44;100732.75;;;12.26;100.00
48204;BME280;33994;50.998;5.864;2022-10-16T05:08:30;100723.06;;;12.29;100.00
48204;BME280;33994;50.998;5.864;2022-10-16T05:11:15;100729.16;;;12.30;100.00
48204;BME280;33994;50.998;5.864;2022-10-16T05:14:01;100735.31;;;12.29;100.00
48204;BME280;33994;50.998;5.864;2022-10-16T05:16:46;100744.88;;;12.30;100.00
48204;BME280;33994;50.998;5.864;2022-10-16T05:19:32;100743.13;;;12.30;100.00
48204;BME280;33994;50.998;5.864;2022-10-16T05:22:17;100740.56;;;12.29;100.00
48204;BME280;33994;50.998;5.864;2022-10-16T05:25:03;100747.47;;;12.31;100.00
48204;BME280;33994;50.998;5.864;2022-10-16T05:27:49;100764.94;;;12.32;100.00
48204;BME280;33994;50.998;5.864;2022-10-16T05:30:37;100757.94;;;12.31;100.00
48204;BME280;33994;50.998;5.864;2022-10-16T05:33:24;100747.47;;;12.31;100.00
48204;BME280;33994;50.998;5.864;2022-10-16T05:36:10;100752.72;;;12.31;100.00
48204;BME280;33994;50.998;5.864;2022-10-16T05:38:55;100751.84;;;12.31;100.00
48204;BME280;33994;50.998;5.864;2022-10-16T05:41:41;100752.72;;;12.31;100.00
48204;BME280;33994;50.998;5.864;2022-10-16T05:44:27;100763.28;;;12.28;100.00
48204;BME280;33994;50.998;5.864;2022-10-16T05:47:13;100769.47;;;12.26;100.00
48204;BME280;33994;50.998;5.864;2022-10-16T05:49:59;100773.00;;;12.23;100.00
48204;BME280;33994;50.998;5.864;2022-10-16T05:52:44;100775.66;;;12.20;100.00
48204;BME280;33994;50.998;5.864;2022-10-16T05:55:30;100777.47;;;12.18;100.00
48204;BME280;33994;50.998;5.864;2022-10-16T05:58:15;100784.44;;;12.19;100.00
48204;BME280;33994;50.998;5.864;2022-10-16T06:01:04;100787.88;;;12.24;100.00
48204;BME280;33994;50.998;5.864;2022-10-16T06:03:53;100803.63;;;12.21;100.00
48204;BME280;33994;50.998;5.864;2022-10-16T06:06:38;100808.84;;;12.24;100.00
48204;BME280;33994;50.998;5.864;2022-10-16T06:09:24;100803.50;;;12.27;100.00
48204;BME280;33994;50.998;5.864;2022-10-16T06:12:09;100801.75;;;12.28;100.00
48204;BME280;33994;50.998;5.864;2022-10-16T06:14:55;100815.69;;;12.30;100.00
48204;BME280;33994;50.998;5.864;2022-10-16T06:17:40;100828.75;;;12.31;100.00
48204;BME280;33994;50.998;5.864;2022-10-16T06:20:26;100835.78;;;12.31;100.00
48204;BME280;33994;50.998;5.864;2022-10-16T06:23:11;100837.56;;;12.29;100.00
48204;BME280;33994;50.998;5.864;2022-10-16T06:26:04;100830.53;;;12.31;100.00
48204;BME280;33994;50.998;5.864;2022-10-16T06:28:50;100838.44;;;12.29;100.00
48204;BME280;33994;50.998;5.864;2022-10-16T06:31:35;100851.56;;;12.29;100.00
48204;BME280;33994;50.998;5.864;2022-10-16T06:34:21;100842.84;;;12.27;100.00
48204;BME280;33994;50.998;5.864;2022-10-16T06:37:07;100850.69;;;12.27;100.00
48204;BME280;33994;50.998;5.864;2022-10-16T06:39:52;100851.56;;;12.29;100.00
48204;BME280;33994;50.998;5.864;2022-10-16T06:42:38;100855.03;;;12.30;100.00
48204;BME280;33994;50.998;5.864;2022-10-16T06:45:23;100858.50;;;12.30;100.00
48204;BME280;33994;50.998;5.864;2022-10-16T06:48:08;100859.41;;;12.29;100.00
48204;BME280;33994;50.998;5.864;2022-10-16T06:53:52;100858.56;;;12.29;100.00
48204;BME280;33994;50.998;5.864;2022-10-16T06:56:37;100871.63;;;12.30;100.00
48204;BME280;33994;50.998;5.864;2022-10-16T06:59:23;100872.53;;;12.29;100.00
48204;BME280;33994;50.998;5.864;2022-10-16T07:02:08;100878.69;;;12.28;100.00
48204;BME280;33994;50.998;5.864;2022-10-16T07:04:54;100885.63;;;12.29;100.00
48204;BME280;33994;50.998;5.864;2022-10-16T07:07:40;100895.28;;;12.29;100.00
48204;BME280;33994;50.998;5.864;2022-10-16T07:10:26;100898.75;;;12.29;100.00
48204;BME280;33994;50.998;5.864;2022-10-16T07:13:11;100905.72;;;12.30;100.00
48204;BME280;33994;50.998;5.864;2022-10-16T07:15:58;100903.91;;;12.34;100.00
48204;BME280;33994;50.998;5.864;2022-10-16T07:18:44;100907.25;;;12.40;100.00
48204;BME280;33994;50.998;5.864;2022-10-16T07:21:32;100911.47;;;12.48;100.00
48204;BME280;33994;50.998;5.864;2022-10-16T07:24:19;100914.81;;;12.56;100.00
48204;BME280;33994;50.998;5.864;2022-10-16T07:27:05;100927.72;;;12.65;100.00
48204;BME280;33994;50.998;5.864;2022-10-16T07:29:50;100931.88;;;12.75;100.00
48204;BME280;33994;50.998;5.864;2022-10-16T07:32:36;100934.28;;;12.84;100.00
48204;BME280;33994;50.998;5.864;2022-10-16T07:35:21;100934.97;;;12.93;100.00
48204;BME280;33994;50.998;5.864;2022-10-16T07:38:06;100943.44;;;13.04;100.00
48204;BME280;33994;50.998;5.864;2022-10-16T07:41:00;100950.22;;;13.14;100.00
48204;BME280;33994;50.998;5.864;2022-10-16T07:43:47;100940.47;;;13.19;100.00
48204;BME280;33994;50.998;5.864;2022-10-16T07:46:33;100945.53;;;13.27;100.00
48204;BME280;33994;50.998;5.864;2022-10-16T07:49:19;100951.44;;;13.36;100.00
48204;BME280;33994;50.998;5.864;2022-10-16T07:52:05;100946.91;;;13.43;100.00
48204;BME280;33994;50.998;5.864;2022-10-16T07:54:50;100952.00;;;13.51;100.00
48204;BME280;33994;50.998;5.864;2022-10-16T07:57:36;100951.81;;;13.58;99.77
48204;BME280;33994;50.998;5.864;2022-10-16T08:00:21;100956.88;;;13.65;99.14
48204;BME280;33994;50.998;5.864;2022-10-16T08:03:08;100966.31;;;13.73;98.70
48204;BME280;33994;50.998;5.864;2022-10-16T08:05:53;100969.69;;;13.78;98.18
48204;BME280;33994;50.998;5.864;2022-10-16T08:08:38;100981.84;;;13.82;97.45
48204;BME280;33994;50.998;5.864;2022-10-16T08:11:24;100987.88;;;13.86;96.91
48204;BME280;33994;50.998;5.864;2022-10-16T08:14:10;100985.13;;;13.91;96.39
48204;BME280;33994;50.998;5.864;2022-10-16T08:16:56;100997.22;;;13.98;96.38
48204;BME280;33994;50.998;5.864;2022-10-16T08:19:47;100994.44;;;14.04;95.28
48204;BME280;33994;50.998;5.864;2022-10-16T08:22:33;101001.28;;;14.09;95.14
48204;BME280;33994;50.998;5.864;2022-10-16T08:25:18;100998.53;;;14.14;94.84
48204;BME280;33994;50.998;5.864;2022-10-16T08:28:05;101001.94;;;14.19;94.31
48204;BME280;33994;50.998;5.864;2022-10-16T08:30:50;101016.72;;;14.23;93.72
48204;BME280;33994;50.998;5.864;2022-10-16T08:33:36;101016.53;;;14.29;93.13
48204;BME280;33994;50.998;5.864;2022-10-16T08:36:22;101028.69;;;14.35;92.49
48204;BME280;33994;50.998;5.864;2022-10-16T08:39:07;101026.81;;;14.39;92.34
48204;BME280;33994;50.998;5.864;2022-10-16T08:44:58;101030.91;;;14.49;91.06
48204;BME280;33994;50.998;5.864;2022-10-16T08:48:00;101033.44;;;14.53;90.53
48204;BME280;33994;50.998;5.864;2022-10-16T08:50:50;101044.81;;;14.54;89.92
48204;BME280;33994;50.998;5.864;2022-10-16T08:53:42;101040.28;;;14.59;89.63
48204;BME280;33994;50.998;5.864;2022-10-16T08:56:30;101042.78;;;14.65;89.28
48204;BME280;33994;50.998;5.864;2022-10-16T08:59:16;101054.94;;;14.69;88.46
48204;BME280;33994;50.998;5.864;2022-10-16T09:02:02;101059.25;;;14.72;87.79
48204;BME280;33994;50.998;5.864;2022-10-16T09:05:03;101047.78;;;14.74;86.96
48204;BME280;33994;50.998;5.864;2022-10-16T09:17:16;101065.75;;;14.91;85.53
48204;BME280;33994;50.998;5.864;2022-10-16T09:25:50;101063.03;;;14.93;84.89
48204;BME280;33994;50.998;5.864;2022-10-16T09:28:35;101064.69;;;14.97;84.77
48204;BME280;33994;50.998;5.864;2022-10-16T09:31:22;101066.31;;;15.01;84.40
48204;BME280;33994;50.998;5.864;2022-10-16T09:34:35;101061.91;;;15.01;83.92
48204;BME280;33994;50.998;5.864;2022-10-16T09:37:23;101061.81;;;15.04;84.04
48204;BME280;33994;50.998;5.864;2022-10-16T09:40:24;101059.97;;;15.08;83.32
48204;BME280;33994;50.998;5.864;2022-10-16T09:46:35;101059.78;;;15.14;83.12
48204;BME280;33994;50.998;5.864;2022-10-16T09:49:22;101057.91;;;15.18;83.16
48204;BME280;33994;50.998;5.864;2022-10-16T09:52:13;101062.22;;;15.20;82.58
48204;BME280;33994;50.998;5.864;2022-10-16T09:55:02;101062.13;;;15.23;82.37
48204;BME280;33994;50.998;5.864;2022-10-16T09:57:49;101055.03;;;15.25;81.82
48204;BME280;33994;50.998;5.864;2022-10-16T10:00:35;101067.22;;;15.29;81.57
48204;BME280;33994;50.998;5.864;2022-10-16T10:03:37;101061.84;;;15.32;80.78
48204;BME280;33994;50.998;5.864;2022-10-16T10:06:34;101060.06;;;15.33;80.64
48204;BME280;33994;50.998;5.864;2022-10-16T10:09:40;101059.16;;;15.34;80.68
48204;BME280;33994;50.998;5.864;2022-10-16T10:12:31;101063.47;;;15.37;80.22
48204;BME280;33994;50.998;5.864;2022-10-16T10:15:18;101063.38;;;15.40;79.91
48204;BME280;33994;50.998;5.864;2022-10-16T10:18:18;101060.66;;;15.43;79.42
48204;BME280;33994;50.998;5.864;2022-10-16T10:21:04;101055.44;;;15.41;79.90
48204;BME280;33994;50.998;5.864;2022-10-16T10:23:56;101058.84;;;15.45;78.88
48204;BME280;33994;50.998;5.864;2022-10-16T10:39:54;101078.28;;;15.69;77.76
48204;BME280;33994;50.998;5.864;2022-10-16T10:43:07;101080.78;;;15.73;76.48
48204;BME280;33994;50.998;5.864;2022-10-16T10:46:02;101082.50;;;15.74;76.94
48204;BME280;33994;50.998;5.864;2022-10-16T11:06:46;101083.38;;;16.01;75.71
48204;BME280;33994;50.998;5.864;2022-10-16T11:09:47;101079.69;;;16.07;75.27
48204;BME280;33994;50.998;5.864;2022-10-16T11:12:41;101089.22;;;16.11;74.85
48204;BME280;33994;50.998;5.864;2022-10-16T11:15:31;101098.06;;;16.10;74.93
48204;BME280;33994;50.998;5.864;2022-10-16T11:18:22;101091.03;;;16.09;74.81
48204;BME280;33994;50.998;5.864;2022-10-16T11:21:12;101090.25;;;16.07;74.49
48204;BME280;33994;50.998;5.864;2022-10-16T11:24:04;101084.16;;;16.05;74.48
48204;BME280;33994;50.998;5.864;2022-10-16T11:26:53;101087.63;;;16.05;74.66
48204;BME280;33994;50.998;5.864;2022-10-16T11:29:47;101090.28;;;16.05;74.64
48204;BME280;33994;50.998;5.864;2022-10-16T11:32:45;101101.59;;;16.09;74.50
48204;BME280;33994;50.998;5.864;2022-10-16T11:35:47;101092.88;;;16.07;74.40
48204;BME280;33994;50.998;5.864;2022-10-16T11:41:34;101094.69;;;16.05;74.17
48204;BME280;33994;50.998;5.864;2022-10-16T11:44:40;101083.25;;;16.06;74.39
48204;BME280;33994;50.998;5.864;2022-10-16T11:47:48;101085.81;;;16.08;74.68
48204;BME280;33994;50.998;5.864;2022-10-16T11:50:48;101089.28;;;16.10;74.20
48204;BME280;33994;50.998;5.864;2022-10-16T11:56:28;101092.56;;;16.16;74.37
48204;BME280;33994;50.998;5.864;2022-10-16T11:59:24;101099.47;;;16.20;73.93
48204;BME280;33994;50.998;5.864;2022-10-16T12:08:19;101082.41;;;16.30;73.74
48204;BME280;33994;50.998;5.864;2022-10-16T12:11:22;101076.09;;;16.35;72.56
48204;BME280;33994;50.998;5.864;2022-10-16T12:16:59;101089.03;;;16.42;73.23
48204;BME280;33994;50.998;5.864;2022-10-16T12:19:59;101094.31;;;16.42;73.30
48204;BME280;33994;50.998;5.864;2022-10-16T12:23:03;101089.09;;;16.41;72.62
48204;BME280;33994;50.998;5.864;2022-10-16T12:25:54;101093.50;;;16.40;73.19
48204;BME280;33994;50.998;5.864;2022-10-16T12:28:41;101090.00;;;16.40;73.44
48204;BME280;33994;50.998;5.864;2022-10-16T12:31:37;101090.81;;;16.42;72.98
48204;BME280;33994;50.998;5.864;2022-10-16T12:34:42;101086.97;;;16.50;72.85
48204;BME280;33994;50.998;5.864;2022-10-16T12:37:34;101092.91;;;16.57;72.96
48204;BME280;33994;50.998;5.864;2022-10-16T12:40:27;101090.06;;;16.63;71.98
48204;BME280;33994;50.998;5.864;2022-10-16T12:51:59;101094.94;;;16.75;71.95
48204;BME280;33994;50.998;5.864;2022-10-16T12:54:45;101090.22;;;16.84;71.88
48204;BME280;33994;50.998;5.864;2022-10-16T13:00:45;101092.66;;;16.90;71.06
48204;BME280;33994;50.998;5.864;2022-10-16T13:04:10;101087.38;;;16.90;70.95
48204;BME280;33994;50.998;5.864;2022-10-16T13:07:26;101084.84;;;16.87;70.60
48204;BME280;33994;50.998;5.864;2022-10-16T13:28:13;101086.94;;;17.00;68.92
48204;BME280;33994;50.998;5.864;2022-10-16T13:31:00;101088.72;;;17.00;69.17
48204;BME280;33994;50.998;5.864;2022-10-16T13:33:49;101087.94;;;16.98;68.90
48204;BME280;33994;50.998;5.864;2022-10-16T13:36:52;101097.75;;;16.94;68.82
48204;BME280;33994;50.998;5.864;2022-10-16T13:39:38;101108.25;;;16.96;69.18
48204;BME280;33994;50.998;5.864;2022-10-16T13:42:26;101113.53;;;16.96;69.81
48204;BME280;33994;50.998;5.864;2022-10-16T13:45:24;101102.03;;;16.97;70.28
48204;BME280;33994;50.998;5.864;2022-10-16T13:48:10;101099.41;;;16.97;70.83
48204;BME280;33994;50.998;5.864;2022-10-16T13:51:11;101105.50;;;16.99;71.00
48204;BME280;33994;50.998;5.864;2022-10-16T13:53:57;101104.53;;;17.01;71.43
48204;BME280;33994;50.998;5.864;2022-10-16T13:56:43;101098.25;;;17.04;71.00
48204;BME280;33994;50.998;5.864;2022-10-16T13:59:36;101117.63;;;17.05;70.14
48204;BME280;33994;50.998;5.864;2022-10-16T14:02:37;101121.06;;;17.07;69.45
48204;BME280;33994;50.998;5.864;2022-10-16T14:05:24;101110.44;;;17.08;69.65
48204;BME280;33994;50.998;5.864;2022-10-16T14:08:10;101103.44;;;17.07;69.52
48204;BME280;33994;50.998;5.864;2022-10-16T14:10:59;101100.88;;;17.06;69.77
48204;BME280;33994;50.998;5.864;2022-10-16T14:13:46;101102.69;;;17.03;69.58
48204;BME280;33994;50.998;5.864;2022-10-16T14:16:32;101105.41;;;17.02;69.66
48204;BME280;33994;50.998;5.864;2022-10-16T14:19:26;101111.63;;;17.01;69.43
48204;BME280;33994;50.998;5.864;2022-10-16T14:22:36;101111.72;;;16.98;69.17
48204;BME280;33994;50.998;5.864;2022-10-16T14:25:27;101114.34;;;16.98;69.61
48204;BME280;33994;50.998;5.864;2022-10-16T14:31:00;101117.03;;;16.96;70.59
48204;BME280;33994;50.998;5.864;2022-10-16T14:33:46;101109.19;;;16.95;71.06
48204;BME280;33994;50.998;5.864;2022-10-16T14:36:33;101102.28;;;16.91;71.68
48204;BME280;33994;50.998;5.864;2022-10-16T14:39:21;101098.06;;;16.85;72.11
48204;BME280;33994;50.998;5.864;2022-10-16T14:42:16;101093.78;;;16.83;72.28
48204;BME280;33994;50.998;5.864;2022-10-16T14:45:08;101086.84;;;16.80;71.63
48204;BME280;33994;50.998;5.864;2022-10-16T14:47:58;101071.91;;;16.79;71.64
48204;BME280;33994;50.998;5.864;2022-10-16T14:50:44;101075.44;;;16.78;71.88
48204;BME280;33994;50.998;5.864;2022-10-16T14:53:29;101068.44;;;16.77;72.09
48204;BME280;33994;50.998;5.864;2022-10-16T14:56:19;101067.66;;;16.75;72.08
48204;BME280;33994;50.998;5.864;2022-10-16T14:59:12;101073.81;;;16.75;72.05
48204;BME280;33994;50.998;5.864;2022-10-16T15:02:01;101069.41;;;16.74;72.35
48204;BME280;33994;50.998;5.864;2022-10-16T15:04:54;101069.41;;;16.74;72.74
48204;BME280;33994;50.998;5.864;2022-10-16T15:07:39;101077.44;;;16.71;73.68
48204;BME280;33994;50.998;5.864;2022-10-16T15:10:27;101075.69;;;16.70;73.97
48204;BME280;33994;50.998;5.864;2022-10-16T15:13:13;101065.19;;;16.69;74.02
48204;BME280;33994;50.998;5.864;2022-10-16T15:15:58;101070.47;;;16.69;73.69
48204;BME280;33994;50.998;5.864;2022-10-16T15:18:44;101078.34;;;16.70;73.68
48204;BME280;33994;50.998;5.864;2022-10-16T15:21:31;101076.63;;;16.69;73.78
48204;BME280;33994;50.998;5.864;2022-10-16T15:24:17;101073.19;;;16.67;74.12
48204;BME280;33994;50.998;5.864;2022-10-16T15:27:03;101075.88;;;16.66;74.85
48204;BME280;33994;50.998;5.864;2022-10-16T15:29:48;101078.56;;;16.64;75.73
48204;BME280;33994;50.998;5.864;2022-10-16T15:32:34;101071.69;;;16.60;76.36
48204;BME280;33994;50.998;5.864;2022-10-16T15:35:19;101084.06;;;16.58;76.59
48204;BME280;33994;50.998;5.864;2022-10-16T15:38:05;101081.41;;;16.58;76.99
48204;BME280;33994;50.998;5.864;2022-10-16T15:40:51;101082.34;;;16.57;76.86
48204;BME280;33994;50.998;5.864;2022-10-16T15:43:36;101074.44;;;16.57;77.24
48204;BME280;33994;50.998;5.864;2022-10-16T15:46:23;101070.94;;;16.57;77.39
48204;BME280;33994;50.998;5.864;2022-10-16T15:49:09;101059.63;;;16.53;78.09
48204;BME280;33994;50.998;5.864;2022-10-16T15:51:55;101062.31;;;16.51;77.77
48204;BME280;33994;50.998;5.864;2022-10-16T15:54:40;101064.22;;;16.48;78.75
48204;BME280;33994;50.998;5.864;2022-10-16T15:57:28;101060.75;;;16.46;79.67
48204;BME280;33994;50.998;5.864;2022-10-16T16:00:16;101059.97;;;16.44;80.32
48204;BME280;33994;50.998;5.864;2022-10-16T16:03:03;101057.34;;;16.42;81.20
48204;BME280;33994;50.998;5.864;2022-10-16T16:05:49;101059.31;;;16.37;81.64
48204;BME280;33994;50.998;5.864;2022-10-16T16:08:34;101054.13;;;16.34;81.92
48204;BME280;33994;50.998;5.864;2022-10-16T16:11:20;101056.94;;;16.29;82.62
48204;BME280;33994;50.998;5.864;2022-10-16T16:14:10;101064.03;;;16.27;82.91
48204;BME280;33994;50.998;5.864;2022-10-16T16:16:58;101066.78;;;16.24;83.23
48204;BME280;33994;50.998;5.864;2022-10-16T16:19:45;101062.47;;;16.22;83.76
48204;BME280;33994;50.998;5.864;2022-10-16T16:22:31;101070.59;;;16.16;84.34